Time;durP1;ratioP1;P1;durP2;ratioP2;P2;SDS_P1;SDS_P2;PMS_P1;PMS_P2;Temp;Humidity;BMP_temperature;BMP_pressure;BME280_temperature;BME280_humidity;BME280_pressure;Samples;Min_cycle;Max_cycle;Signal;HPM_P1;HPM_P2
2023/12/05 00:02:24;;;;;;;12.00;8.13;;;;;;;5.75;62.52;96262.34;5068110;28;20269;-71
2023/12/05 00:04:50;;;;;;;18.13;8.70;;;;;;;5.77;62.11;96265.63;5059364;28;20266;-72
2023/12/05 00:07:16;;;;;;;16.80;8.27;;;;;;;5.80;62.48;96264.50;5059175;28;20201;-73
2023/12/05 00:09:41;;;;;;;10.00;7.80;;;;;;;5.86;62.13;96252.75;5061940;28;20645;-73
2023/12/05 00:12:07;;;;;;;9.23;6.97;;;;;;;5.90;62.34;96259.25;5053188;28;20211;-71
2023/12/05 00:14:33;;;;;;;11.77;7.60;;;;;;;5.92;62.03;96258.16;5064771;28;20183;-71
2023/12/05 00:16:58;;;;;;;11.37;7.67;;;;;;;5.91;62.06;96251.34;5067954;28;20457;-71
2023/12/05 00:19:23;;;;;;;10.03;7.10;;;;;;;5.91;62.20;96256.53;5044075;28;20179;-70
2023/12/05 00:21:49;;;;;;;8.17;6.20;;;;;;;5.98;62.29;96248.97;5068409;28;20606;-72
2023/12/05 00:24:14;;;;;;;8.40;5.47;;;;;;;5.99;62.56;96243.63;5061396;28;20603;-70
2023/12/05 00:26:40;;;;;;;7.33;5.23;;;;;;;6.03;62.46;96251.16;5068659;28;20206;-71
2023/12/05 00:29:05;;;;;;;8.07;5.50;;;;;;;6.11;62.91;96252.03;5050498;28;20182;-71
2023/12/05 00:31:30;;;;;;;5.87;4.37;;;;;;;6.20;62.57;96255.53;5068104;28;20183;-70
2023/12/05 00:33:56;;;;;;;5.13;4.10;;;;;;;6.19;62.63;96253.91;5068401;28;20779;-71
2023/12/05 00:36:21;;;;;;;6.40;4.50;;;;;;;6.22;62.36;96251.00;5060488;28;20233;-71
2023/12/05 00:38:47;;;;;;;5.40;4.27;;;;;;;6.27;62.69;96260.97;5067186;28;20210;-70
2023/12/05 00:41:13;;;;;;;6.40;4.03;;;;;;;6.25;62.99;96252.50;5049247;28;20181;-70
2023/12/05 00:43:38;;;;;;;4.47;4.07;;;;;;;6.28;62.59;96257.41;5063117;28;20239;-70
2023/12/05 00:46:04;;;;;;;5.67;4.50;;;;;;;6.26;62.97;96260.16;5068404;28;20190;-71
2023/12/05 00:48:29;;;;;;;4.90;4.00;;;;;;;6.24;63.29;96262.09;5066051;28;20278;-71
2023/12/05 00:50:55;;;;;;;4.37;3.90;;;;;;;6.28;62.99;96262.59;5049616;28;20669;-71
2023/12/05 00:53:20;;;;;;;4.40;3.63;;;;;;;6.28;63.33;96253.03;5066717;28;20236;-71
2023/12/05 00:55:46;;;;;;;4.60;3.83;;;;;;;6.28;63.24;96254.78;5057761;28;20174;-71
2023/12/05 00:58:11;;;;;;;6.00;3.77;;;;;;;6.26;63.47;96256.72;5061235;28;20678;-72
2023/12/05 01:00:37;;;;;;;4.00;3.60;;;;;;;6.25;63.35;96266.34;5067764;28;20186;-70
2023/12/05 01:03:02;;;;;;;4.17;3.67;;;;;;;6.32;63.54;96273.53;5061051;28;20639;-71
2023/12/05 01:05:27;;;;;;;4.23;3.80;;;;;;;6.33;63.49;96265.59;5067805;28;20235;-71
2023/12/05 01:07:53;;;;;;;4.90;3.70;;;;;;;6.26;64.21;96275.78;5066422;28;20273;-71
2023/12/05 01:10:18;;;;;;;3.93;3.53;;;;;;;6.28;63.34;96273.84;5066870;28;20214;-72
2023/12/05 01:12:45;;;;;;;4.20;3.60;;;;;;;6.32;63.52;96269.16;5063766;28;20283;-71
2023/12/05 01:15:11;;;;;;;3.80;3.30;;;;;;;6.32;63.62;96283.94;5067779;28;20190;-71
2023/12/05 01:17:36;;;;;;;4.40;3.70;;;;;;;6.39;63.80;96277.19;5066515;28;20472;-70
2023/12/05 01:20:06;;;;;;;7.87;3.67;;;;;;;6.37;63.63;96286.94;5061892;28;20195;-71
2023/12/05 01:22:32;;;;;;;3.87;3.47;;;;;;;6.42;63.30;96284.72;5066389;28;20208;-71
2023/12/05 01:24:57;;;;;;;3.77;3.37;;;;;;;6.40;63.64;96279.63;5049445;28;20420;-71
2023/12/05 01:27:23;;;;;;;4.40;3.50;;;;;;;6.42;63.58;96279.50;5059777;28;20244;-72
2023/12/05 01:29:48;;;;;;;4.20;3.67;;;;;;;6.44;63.72;96282.75;5059640;28;20744;-69
2023/12/05 01:32:15;;;;;;;3.70;3.20;;;;;;;6.44;63.69;96282.75;5056012;28;20229;-70
2023/12/05 01:34:41;;;;;;;4.37;3.73;;;;;;;6.38;63.95;96278.97;5067376;28;20412;-70
2023/12/05 01:37:06;;;;;;;4.00;3.40;;;;;;;6.45;63.79;96274.81;5052625;28;20904;-71
2023/12/05 01:39:31;;;;;;;4.17;3.40;;;;;;;6.50;63.69;96281.34;5070402;28;20202;-70
2023/12/05 01:41:57;;;;;;;4.80;3.60;;;;;;;6.54;63.60;96287.91;5061508;28;20217;-69
2023/12/05 01:44:23;;;;;;;4.80;3.83;;;;;;;6.43;63.93;96289.75;5060944;28;20776;-70
2023/12/05 01:46:49;;;;;;;3.27;2.97;;;;;;;6.51;63.75;96288.19;5060217;28;20417;-71
2023/12/05 01:49:16;;;;;;;6.10;4.10;;;;;;;6.54;63.66;96285.28;5053414;28;20187;-72
2023/12/05 01:51:42;;;;;;;3.87;3.47;;;;;;;6.59;63.20;96281.25;5052074;28;20179;-72
2023/12/05 01:54:07;;;;;;;3.90;3.50;;;;;;;6.60;63.56;96272.50;5068849;28;20431;-70
2023/12/05 01:56:33;;;;;;;4.30;3.80;;;;;;;6.66;63.08;96283.28;5069077;28;20209;-71
2023/12/05 01:58:58;;;;;;;3.77;3.47;;;;;;;6.65;63.38;96285.06;5056141;28;20214;-71
2023/12/05 02:01:25;;;;;;;5.10;4.30;;;;;;;6.64;62.87;96269.59;5067458;28;20186;-70
2023/12/05 02:03:50;;;;;;;5.00;4.50;;;;;;;6.65;63.22;96273.84;5045648;28;20336;-72
2023/12/05 02:06:18;;;;;;;4.97;3.80;;;;;;;6.65;63.19;96273.84;5069555;28;20446;-71
2023/12/05 02:08:44;;;;;;;6.00;4.50;;;;;;;6.56;63.36;96267.75;5044148;28;20235;-71
2023/12/05 02:11:10;;;;;;;4.93;4.03;;;;;;;6.54;63.55;96267.91;5068982;28;20502;-71
2023/12/05 02:13:37;;;;;;;4.33;3.93;;;;;;;6.55;63.36;96263.50;5054059;28;20463;-71
2023/12/05 02:16:29;;;;;;;4.97;4.47;;;;;;;6.60;63.35;96269.88;5062188;28;20421;-71
2023/12/05 02:19:22;;;;;;;4.93;4.30;;;;;;;6.63;62.80;96275.75;5070302;28;20453;-70
2023/12/05 02:21:49;;;;;;;4.80;4.30;;;;;;;6.63;62.86;96267.97;5051773;28;20852;-70
2023/12/05 02:24:25;;;;;;;4.90;3.97;;;;;;;6.61;62.88;96266.31;5071173;28;20943;-73
2023/12/05 02:27:12;;;;;;;6.60;4.70;;;;;;;6.59;62.80;96267.44;5069415;28;20431;-72
2023/12/05 02:29:48;;;;;;;4.40;4.00;;;;;;;6.57;63.25;96271.97;5043932;28;20428;-72
2023/12/05 02:32:14;;;;;;;4.20;3.80;;;;;;;6.52;62.91;96267.22;5068628;28;20440;-72
2023/12/05 02:34:39;;;;;;;4.93;4.10;;;;;;;6.51;63.72;96256.94;5068688;28;21297;-72
2023/12/05 02:37:18;;;;;;;4.50;4.10;;;;;;;6.47;63.38;96261.63;5052223;28;20862;-72
2023/12/05 02:39:45;;;;;;;5.23;4.20;;;;;;;6.50;62.92;96270.94;5046645;28;20294;-72
2023/12/05 02:42:12;;;;;;;5.17;4.20;;;;;;;6.57;62.85;96277.19;5039560;28;20853;-70
2023/12/05 02:44:44;;;;;;;5.03;3.87;;;;;;;6.53;62.91;96279.28;5067138;28;20783;-71
2023/12/05 02:47:12;;;;;;;5.53;4.30;;;;;;;6.53;63.63;96287.09;5069927;28;20405;-71
2023/12/05 02:49:37;;;;;;;5.13;4.30;;;;;;;6.58;63.33;96282.22;5048824;28;20424;-71
2023/12/05 02:52:03;;;;;;;5.37;4.47;;;;;;;6.56;62.93;96278.97;5067348;28;20429;-72
2023/12/05 02:54:29;;;;;;;5.77;4.77;;;;;;;6.53;63.40;96287.09;5035495;28;20649;-72
2023/12/05 02:56:54;;;;;;;5.03;4.53;;;;;;;6.61;63.54;96288.94;5066825;28;20286;-73
2023/12/05 02:59:19;;;;;;;4.73;4.20;;;;;;;6.69;63.25;96286.41;5052694;28;20175;-71
2023/12/05 03:01:45;;;;;;;5.00;3.97;;;;;;;6.68;62.77;96283.97;5061619;28;20191;-71
2023/12/05 03:04:10;;;;;;;4.80;4.00;;;;;;;6.65;62.94;96289.47;5064455;28;20214;-71
2023/12/05 03:06:36;;;;;;;4.73;3.80;;;;;;;6.66;63.11;96283.28;5065935;28;20228;-72
2023/12/05 03:09:03;;;;;;;6.00;4.20;;;;;;;6.70;63.26;96295.84;5062441;28;20178;-71
2023/12/05 03:11:29;;;;;;;5.40;3.90;;;;;;;6.76;62.90;96292.63;5069304;28;20546;-72
2023/12/05 03:13:54;;;;;;;4.37;3.97;;;;;;;6.82;62.67;96290.41;5069463;28;20484;-71
2023/12/05 03:16:20;;;;;;;4.90;3.80;;;;;;;6.79;62.91;96306.31;5066586;28;20440;-71
2023/12/05 03:18:45;;;;;;;4.10;3.70;;;;;;;6.69;62.95;96303.78;5068454;28;20179;-70
2023/12/05 03:21:16;;;;;;;6.80;4.37;;;;;;;6.65;62.71;96303.28;5064204;28;20217;-71
2023/12/05 03:23:42;;;;;;;4.77;4.30;;;;;;;6.69;62.99;96306.41;5046576;28;20221;-70
2023/12/05 03:26:07;;;;;;;4.83;4.20;;;;;;;6.70;62.84;96303.66;5063880;28;20886;-71
2023/12/05 03:28:33;;;;;;;7.43;3.97;;;;;;;6.70;63.00;96293.25;5050929;28;20228;-73
2023/12/05 03:30:58;;;;;;;8.33;4.23;;;;;;;6.71;63.27;96302.69;5069793;28;20192;-71
2023/12/05 03:33:24;;;;;;;6.60;4.83;;;;;;;6.74;63.04;96301.56;5066612;28;20229;-71
2023/12/05 03:35:49;;;;;;;4.20;3.80;;;;;;;6.73;63.63;96297.31;5068796;28;20650;-73
2023/12/05 03:38:14;;;;;;;5.23;4.20;;;;;;;6.67;63.56;96288.34;5068745;28;20256;-71
2023/12/05 03:40:40;;;;;;;4.83;4.30;;;;;;;6.71;63.66;96288.84;5054047;28;20253;-71
2023/12/05 03:43:05;;;;;;;6.33;4.10;;;;;;;6.74;63.83;96289.34;5063904;28;20195;-72
2023/12/05 03:45:31;;;;;;;5.97;4.77;;;;;;;6.74;63.73;96293.75;5065876;28;20221;-72
2023/12/05 03:47:56;;;;;;;4.30;3.80;;;;;;;6.78;63.63;96289.91;5069527;28;20185;-71
2023/12/05 03:50:22;;;;;;;5.40;4.40;;;;;;;6.83;63.78;96292.84;5069511;28;20669;-72
2023/12/05 03:52:47;;;;;;;5.03;4.53;;;;;;;6.84;63.66;96293.69;5065659;28;20214;-71
2023/12/05 03:55:13;;;;;;;5.03;3.93;;;;;;;6.89;63.80;96292.25;5069807;28;20272;-71
2023/12/05 03:57:38;;;;;;;5.80;4.40;;;;;;;6.96;63.12;96299.44;5065583;28;20207;-70
2023/12/05 04:00:04;;;;;;;6.10;4.40;;;;;;;6.96;62.99;96304.66;5056959;28;20661;-72
2023/12/05 04:02:29;;;;;;;4.63;4.00;;;;;;;6.98;63.01;96294.91;5068978;28;20198;-69
2023/12/05 04:04:55;;;;;;;5.40;4.20;;;;;;;7.01;63.35;96302.44;5069421;28;20479;-71
2023/12/05 04:07:21;;;;;;;5.17;4.00;;;;;;;6.95;62.90;96305.63;5069211;28;20641;-71
2023/12/05 04:09:46;;;;;;;4.40;3.80;;;;;;;6.96;63.13;96310.69;5058205;28;20301;-71
2023/12/05 04:12:12;;;;;;;4.07;3.63;;;;;;;6.96;63.00;96322.91;5056969;28;20206;-71
2023/12/05 04:14:38;;;;;;;5.73;4.37;;;;;;;6.96;63.21;96318.53;5066260;28;20190;-71
2023/12/05 04:17:04;;;;;;;6.27;3.67;;;;;;;6.90;63.10;96325.16;5066230;28;20198;-73
2023/12/05 04:19:29;;;;;;;5.17;4.10;;;;;;;6.94;63.32;96330.03;5068730;28;20428;-72
2023/12/05 04:21:55;;;;;;;5.07;4.00;;;;;;;6.98;63.58;96337.44;5063862;28;20179;-72
2023/12/05 04:24:20;;;;;;;4.83;3.87;;;;;;;7.01;63.12;96336.31;5066466;28;20356;-72
2023/12/05 04:26:46;;;;;;;5.60;3.87;;;;;;;7.00;63.21;96330.25;5059881;28;20266;-71
2023/12/05 04:29:11;;;;;;;6.13;3.40;;;;;;;7.02;62.99;96328.31;5052369;28;20530;-72
2023/12/05 04:31:37;;;;;;;7.77;4.07;;;;;;;7.02;63.18;96330.94;5061900;28;20217;-72
2023/12/05 04:34:02;;;;;;;5.40;3.30;;;;;;;6.97;63.37;96334.94;5067611;28;20840;-72
2023/12/05 04:36:28;;;;;;;6.80;4.30;;;;;;;7.03;63.58;96339.56;5068078;28;20651;-72
2023/12/05 04:38:53;;;;;;;3.93;3.63;;;;;;;7.08;62.83;96347.75;5062489;28;20605;-74
2023/12/05 04:41:19;;;;;;;4.90;4.10;;;;;;;7.08;62.68;96347.75;5043871;28;20179;-71
2023/12/05 04:43:44;;;;;;;4.30;3.33;;;;;;;7.09;62.57;96333.75;5065437;28;20743;-71
2023/12/05 04:46:09;;;;;;;6.83;3.80;;;;;;;7.09;63.14;96332.94;5036732;28;20190;-72
2023/12/05 04:48:35;;;;;;;8.63;4.67;;;;;;;7.05;62.60;96337.66;5055688;28;20250;-70
2023/12/05 04:51:00;;;;;;;6.07;4.30;;;;;;;7.03;62.77;96336.97;5065562;28;20182;-73
2023/12/05 04:53:26;;;;;;;4.77;3.50;;;;;;;6.98;63.62;96336.59;5068136;28;20298;-73
2023/12/05 04:55:51;;;;;;;4.77;3.67;;;;;;;6.97;63.14;96324.53;5048280;28;20967;-70
2023/12/05 04:58:17;;;;;;;4.47;3.73;;;;;;;6.93;63.44;96338.84;5068320;28;20209;-71
2023/12/05 05:00:42;;;;;;;3.80;3.50;;;;;;;6.93;63.51;96333.63;5058918;28;20207;-71
2023/12/05 05:03:07;;;;;;;4.30;3.00;;;;;;;6.98;63.35;96331.38;5068276;28;20828;-71
2023/12/05 05:05:33;;;;;;;3.90;3.37;;;;;;;7.01;63.58;96336.31;5067584;28;20544;-70
2023/12/05 05:07:59;;;;;;;5.03;3.70;;;;;;;7.05;63.58;96337.66;5066584;28;20202;-71
2023/12/05 05:10:24;;;;;;;5.57;3.80;;;;;;;7.01;63.76;96331.09;5062711;28;20204;-71
2023/12/05 05:12:50;;;;;;;8.23;3.70;;;;;;;7.05;63.22;96337.66;5061901;28;20632;-70
2023/12/05 05:15:15;;;;;;;3.80;3.17;;;;;;;7.06;64.04;96339.25;5067291;28;20712;-69
2023/12/05 05:17:41;;;;;;;4.23;3.70;;;;;;;7.07;63.46;96338.28;5063179;28;20288;-70
2023/12/05 05:20:07;;;;;;;6.13;2.87;;;;;;;7.14;63.46;96341.09;5060455;28;20205;-71
2023/12/05 05:22:33;;;;;;;5.07;3.33;;;;;;;7.11;63.47;96341.44;5071403;28;20189;-71
2023/12/05 05:24:58;;;;;;;6.60;3.50;;;;;;;7.14;63.28;96339.34;5071234;28;20425;-73
2023/12/05 05:27:23;;;;;;;4.43;3.80;;;;;;;7.15;63.31;96348.78;5070069;28;20459;-71
2023/12/05 05:29:49;;;;;;;4.87;3.17;;;;;;;7.16;63.17;96340.00;5063645;28;20261;-71
2023/12/05 05:32:14;;;;;;;3.57;3.10;;;;;;;7.16;63.41;96340.00;5050751;28;20285;-71
2023/12/05 05:34:40;;;;;;;4.63;3.23;;;;;;;7.13;62.84;96336.88;5050356;28;20207;-70
2023/12/05 05:37:05;;;;;;;5.40;3.23;;;;;;;7.14;63.62;96331.50;5066330;28;20282;-71
2023/12/05 05:39:31;;;;;;;3.90;3.13;;;;;;;7.16;63.35;96339.16;5071321;28;20213;-70
2023/12/05 05:41:56;;;;;;;4.97;3.57;;;;;;;7.17;63.38;96339.03;5071177;28;20213;-71
2023/12/05 05:44:21;;;;;;;5.40;3.50;;;;;;;7.04;63.11;96341.22;5069991;28;20218;-69
2023/12/05 05:46:47;;;;;;;4.50;3.43;;;;;;;7.18;62.59;96337.25;5061094;28;20252;-72
2023/12/05 05:49:13;;;;;;;5.37;3.73;;;;;;;7.16;62.62;96345.22;5064797;28;20202;-71
2023/12/05 05:51:38;;;;;;;5.67;3.50;;;;;;;7.09;63.06;96344.16;5069977;28;20209;-71
2023/12/05 05:54:04;;;;;;;3.87;3.20;;;;;;;7.10;62.57;96335.38;5070071;28;20275;-69
2023/12/05 05:56:29;;;;;;;12.90;3.97;;;;;;;7.06;62.81;96344.47;5062230;28;20188;-69
2023/12/05 05:58:54;;;;;;;4.23;3.50;;;;;;;7.00;62.52;96339.88;5061407;28;20170;-71
2023/12/05 06:01:20;;;;;;;4.73;3.60;;;;;;;6.98;62.99;96339.19;5068042;28;20665;-69
2023/12/05 06:03:45;;;;;;;6.83;3.70;;;;;;;6.90;62.88;96335.56;5070743;28;20676;-71
2023/12/05 06:06:11;;;;;;;4.67;3.90;;;;;;;6.93;62.81;96338.84;5049954;28;20182;-71
2023/12/05 06:08:36;;;;;;;4.10;3.60;;;;;;;6.89;63.02;96338.31;5062183;28;20179;-70
2023/12/05 06:11:02;;;;;;;4.40;3.33;;;;;;;6.91;62.84;96334.59;5070781;28;20179;-73
2023/12/05 06:13:27;;;;;;;4.13;3.60;;;;;;;6.97;63.21;96329.75;5070605;28;20264;-72
2023/12/05 06:15:53;;;;;;;8.80;3.70;;;;;;;6.91;62.84;96331.16;5061472;28;20251;-73
2023/12/05 06:18:18;;;;;;;4.80;3.40;;;;;;;6.91;62.92;96326.78;5059509;28;20203;-71
2023/12/05 06:20:44;;;;;;;5.40;3.70;;;;;;;6.95;63.06;96339.50;5069674;28;20186;-71
2023/12/05 06:23:10;;;;;;;4.03;3.53;;;;;;;6.98;62.93;96337.44;5069411;28;20830;-72
2023/12/05 06:25:35;;;;;;;7.10;3.63;;;;;;;6.93;62.51;96334.44;5066940;28;20197;-71
2023/12/05 06:28:01;;;;;;;5.80;3.50;;;;;;;6.84;62.95;96343.97;5065960;28;20843;-73
2023/12/05 06:30:27;;;;;;;2.90;2.70;;;;;;;6.86;62.62;96349.06;5066026;28;20210;-72
2023/12/05 06:32:52;;;;;;;5.30;3.53;;;;;;;6.87;62.84;96351.50;5069812;28;20444;-71
2023/12/05 06:35:17;;;;;;;3.60;3.30;;;;;;;6.87;62.81;96355.88;5056953;28;20270;-72
2023/12/05 06:37:43;;;;;;;3.77;3.30;;;;;;;6.84;62.43;96361.41;5069306;28;20256;-72
2023/12/05 06:40:09;;;;;;;5.67;3.53;;;;;;;6.86;62.70;96362.06;5067592;28;20637;-71
2023/12/05 06:42:35;;;;;;;5.30;3.80;;;;;;;6.84;63.01;96359.59;5070923;28;20198;-71
2023/12/05 06:45:01;;;;;;;8.37;4.10;;;;;;;6.80;62.98;96371.31;5071812;28;20257;-72
2023/12/05 06:47:27;;;;;;;8.87;3.80;;;;;;;6.80;63.05;96368.69;5063429;28;20424;-72
2023/12/05 06:49:52;;;;;;;5.90;3.87;;;;;;;6.82;62.55;96369.34;5070682;28;20417;-71
2023/12/05 06:52:19;;;;;;;7.17;3.10;;;;;;;6.80;62.44;96371.31;5071475;28;20297;-72
2023/12/05 06:54:45;;;;;;;5.93;3.67;;;;;;;6.81;62.52;96356.47;5052452;28;20191;-71
2023/12/05 06:57:10;;;;;;;4.83;3.43;;;;;;;6.66;63.09;96371.81;5045362;28;20444;-71
2023/12/05 06:59:37;;;;;;;6.50;4.17;;;;;;;6.68;62.86;96356.88;5060483;28;20413;-72
2023/12/05 07:02:02;;;;;;;7.23;3.80;;;;;;;6.66;63.06;96364.00;5070123;28;20185;-72
2023/12/05 07:04:28;;;;;;;8.27;4.03;;;;;;;6.63;62.90;96372.09;5031453;28;21161;-71
2023/12/05 07:06:53;;;;;;;12.33;3.57;;;;;;;6.73;62.82;96375.44;5067600;28;20248;-71
2023/12/05 07:09:19;;;;;;;7.40;3.37;;;;;;;6.77;62.81;96374.19;5063426;28;20542;-70
2023/12/05 07:11:45;;;;;;;5.43;3.17;;;;;;;6.80;62.63;96384.31;5063211;28;20552;-71
2023/12/05 07:14:13;;;;;;;6.40;3.33;;;;;;;6.73;62.97;96385.88;5068971;28;20514;-72
2023/12/05 07:16:38;;;;;;;5.60;3.73;;;;;;;6.78;62.70;96383.66;5066021;28;20997;-71
2023/12/05 07:19:04;;;;;;;7.37;3.20;;;;;;;6.78;62.48;96396.69;5064371;28;20449;-71
2023/12/05 07:21:29;;;;;;;8.40;3.90;;;;;;;6.84;62.67;96398.66;5067525;28;20178;-72
2023/12/05 07:23:55;;;;;;;5.90;3.77;;;;;;;6.85;62.38;96413.34;5068878;28;20324;-71
2023/12/05 07:26:20;;;;;;;9.53;3.30;;;;;;;6.89;62.41;96412.06;5064651;28;20668;-71
2023/12/05 07:28:46;;;;;;;7.20;3.10;;;;;;;6.95;62.46;96410.66;5065889;28;20225;-71
2023/12/05 07:31:11;;;;;;;4.07;3.10;;;;;;;6.95;62.23;96405.44;5068413;28;20598;-71
2023/12/05 07:33:36;;;;;;;4.93;3.23;;;;;;;6.93;62.45;96412.59;5066461;28;20221;-71
2023/12/05 07:36:04;;;;;;;6.33;3.00;;;;;;;6.99;62.54;96416.38;5068690;28;20202;-71
2023/12/05 07:38:29;;;;;;;3.90;2.60;;;;;;;6.98;61.97;96419.97;5069014;28;20655;-72
2023/12/05 07:40:55;;;;;;;3.70;2.80;;;;;;;6.94;62.19;96414.22;5066070;28;20445;-72
2023/12/05 07:43:20;;;;;;;4.90;3.10;;;;;;;6.99;62.09;96413.78;5058218;28;20689;-71
2023/12/05 07:45:46;;;;;;;5.53;2.77;;;;;;;7.07;61.77;96416.44;5064707;28;20214;-71
2023/12/05 07:48:11;;;;;;;5.53;2.50;;;;;;;7.11;61.94;96419.59;5065028;28;20186;-71
2023/12/05 07:50:37;;;;;;;12.43;3.20;;;;;;;7.30;61.87;96413.41;5062893;28;20214;-72
2023/12/05 07:53:02;;;;;;;4.53;2.57;;;;;;;7.59;61.91;96423.56;5045058;28;20212;-71
2023/12/05 07:55:28;;;;;;;7.10;2.77;;;;;;;7.71;61.42;96420.69;5068871;28;20190;-71
2023/12/05 07:57:53;;;;;;;6.23;2.63;;;;;;;8.11;60.84;96416.69;5058550;28;20202;-72
2023/12/05 08:00:19;;;;;;;10.50;3.07;;;;;;;8.30;59.63;96424.25;5062103;28;20186;-71
2023/12/05 08:02:45;;;;;;;5.50;2.73;;;;;;;8.71;59.65;96412.34;5068256;28;20210;-71
2023/12/05 08:05:10;;;;;;;5.47;2.40;;;;;;;9.05;58.13;96427.94;5064469;28;20193;-71
2023/12/05 08:07:37;;;;;;;4.70;2.80;;;;;;;9.43;57.16;96427.44;5067256;28;20178;-72
2023/12/05 08:10:02;;;;;;;4.70;2.67;;;;;;;9.57;56.63;96425.13;5067510;28;20174;-72
2023/12/05 08:12:28;;;;;;;8.70;3.20;;;;;;;9.93;55.50;96425.59;5060152;28;21026;-72
2023/12/05 08:14:53;;;;;;;5.17;2.57;;;;;;;10.18;54.37;96430.75;5057611;28;20270;-72
2023/12/05 08:17:18;;;;;;;9.50;5.53;;;;;;;10.49;54.14;96430.00;5066766;28;20281;-70
2023/12/05 08:19:44;;;;;;;5.20;2.67;;;;;;;10.81;52.85;96419.53;5067919;28;20701;-71
2023/12/05 08:22:09;;;;;;;7.60;2.47;;;;;;;10.96;51.89;96428.28;5057520;28;20557;-73
2023/12/05 08:24:35;;;;;;;4.93;1.97;;;;;;;11.19;50.94;96425.69;5063556;28;20185;-71
2023/12/05 08:27:00;;;;;;;8.60;2.50;;;;;;;11.40;50.53;96418.94;5067055;28;20584;-70
2023/12/05 08:29:26;;;;;;;4.93;2.20;;;;;;;11.41;50.46;96415.34;5075167;28;20182;-71
2023/12/05 08:31:51;;;;;;;3.00;1.73;;;;;;;11.26;48.85;96414.47;5067888;28;20182;-71
2023/12/05 08:34:17;;;;;;;3.13;2.07;;;;;;;11.70;49.59;96413.78;5061076;28;20240;-70
2023/12/05 08:36:44;;;;;;;2.77;2.00;;;;;;;11.77;48.73;96413.88;5043717;28;20205;-72
2023/12/05 08:39:10;;;;;;;4.57;2.07;;;;;;;11.93;48.07;96418.16;5059853;28;20177;-73
2023/12/05 08:41:36;;;;;;;3.00;1.83;;;;;;;11.66;47.98;96425.63;5063198;28;20464;-72
2023/12/05 08:44:01;;;;;;;3.03;1.90;;;;;;;11.66;48.29;96428.25;5056698;28;20469;-70
2023/12/05 08:46:27;;;;;;;3.03;1.70;;;;;;;11.94;48.26;96436.34;5062478;28;20325;-73
2023/12/05 08:48:52;;;;;;;4.00;1.80;;;;;;;11.46;48.60;96434.00;5063261;28;20189;-72
2023/12/05 08:51:18;;;;;;;3.50;1.77;;;;;;;11.25;49.49;96432.03;5068595;28;20603;-72
2023/12/05 08:53:44;;;;;;;3.43;1.70;;;;;;;11.22;50.04;96433.16;5068026;28;20214;-72
2023/12/05 08:56:09;;;;;;;3.80;1.50;;;;;;;11.37;49.47;96441.13;5068033;28;20412;-72
2023/12/05 08:58:36;;;;;;;1.83;1.40;;;;;;;11.27;49.64;96442.34;5068308;28;20866;-72
2023/12/05 09:01:02;;;;;;;2.70;1.50;;;;;;;11.54;49.25;96440.97;5065298;28;20178;-72
2023/12/05 09:03:28;;;;;;;15.20;1.93;;;;;;;11.73;49.01;96444.91;5044378;28;21022;-72
2023/12/05 09:05:54;;;;;;;7.60;2.00;;;;;;;12.03;48.11;96444.97;5064558;28;20205;-73
2023/12/05 09:08:21;;;;;;;5.47;1.73;;;;;;;12.37;47.57;96434.94;5067859;28;20425;-73
2023/12/05 09:10:46;;;;;;;2.80;1.40;;;;;;;12.61;47.05;96439.06;5067356;28;20552;-72
2023/12/05 09:13:14;;;;;;;4.93;1.30;;;;;;;12.95;47.06;96432.38;5062626;28;20458;-70
2023/12/05 09:15:39;;;;;;;7.03;1.80;;;;;;;13.12;45.76;96442.66;5041329;28;20453;-71
2023/12/05 09:18:05;;;;;;;4.27;1.60;;;;;;;12.99;45.06;96441.50;5059532;28;20543;-72
2023/12/05 09:20:30;;;;;;;3.30;1.50;;;;;;;13.15;45.30;96452.81;5067059;28;20410;-72
2023/12/05 09:22:56;;;;;;;3.27;1.57;;;;;;;13.45;44.04;96450.09;5048263;28;20206;-73
2023/12/05 09:25:21;;;;;;;2.10;1.30;;;;;;;13.29;44.47;96459.84;5064069;28;20185;-71
2023/12/05 09:27:46;;;;;;;3.17;1.40;;;;;;;13.34;43.70;96468.00;5067905;28;20305;-71
2023/12/05 09:30:12;;;;;;;5.07;1.77;;;;;;;12.91;44.40;96465.31;5056136;28;20245;-73
2023/12/05 09:32:38;;;;;;;3.60;1.37;;;;;;;12.52;45.16;96471.72;5066903;28;20225;-71
2023/12/05 09:35:04;;;;;;;4.00;1.80;;;;;;;11.98;45.95;96468.31;5067438;28;20186;-71
2023/12/05 09:37:30;;;;;;;1.93;1.60;;;;;;;11.79;46.79;96475.69;5063346;28;20196;-71
2023/12/05 09:39:55;;;;;;;3.87;1.40;;;;;;;11.39;47.81;96477.66;5049614;28;20467;-71
2023/12/05 09:42:24;;;;;;;3.10;1.60;;;;;;;11.10;48.53;96473.91;5066778;28;20194;-70
2023/12/05 09:44:50;;;;;;;3.90;1.63;;;;;;;11.07;48.94;96471.66;5067051;28;20189;-72
2023/12/05 09:47:19;;;;;;;5.40;1.60;;;;;;;10.94;49.10;96477.44;5046434;28;20418;-71
2023/12/05 09:49:45;;;;;;;2.00;1.40;;;;;;;10.69;49.70;96474.94;5066499;28;20189;-71
2023/12/05 09:52:11;;;;;;;5.23;1.47;;;;;;;10.99;49.68;96466.44;5062103;28;20461;-71
2023/12/05 09:54:37;;;;;;;4.10;1.83;;;;;;;11.34;49.15;96477.38;5065382;28;20435;-72
2023/12/05 09:57:03;;;;;;;3.03;1.67;;;;;;;11.19;48.58;96474.69;5050363;28;20483;-72
2023/12/05 09:59:28;;;;;;;3.37;1.40;;;;;;;11.61;48.08;96478.66;5070693;28;20175;-71
2023/12/05 10:02:00;;;;;;;3.00;1.30;;;;;;;11.82;48.35;96479.78;5069996;28;20429;-71
2023/12/05 10:04:27;;;;;;;2.90;1.40;;;;;;;12.02;47.17;96472.22;5066714;28;20171;-71
2023/12/05 10:06:55;;;;;;;3.23;1.60;;;;;;;12.12;46.69;96470.16;5070217;28;20420;-71
2023/12/05 10:09:22;;;;;;;1.93;1.53;;;;;;;11.83;46.90;96468.28;5052802;28;20439;-72
2023/12/05 10:11:48;;;;;;;3.67;1.50;;;;;;;11.62;47.83;96459.28;5052865;28;20428;-71
2023/12/05 10:14:13;;;;;;;2.87;1.30;;;;;;;11.43;47.76;96452.72;5068756;28;21037;-71
2023/12/05 10:16:39;;;;;;;3.17;1.53;;;;;;;11.78;48.56;96447.81;5046459;28;20425;-72
2023/12/05 10:19:07;;;;;;;5.43;1.43;;;;;;;12.42;46.91;96450.94;5066869;28;20174;-73
2023/12/05 10:21:32;;;;;;;3.40;1.73;;;;;;;12.95;45.36;96448.16;5047049;28;20179;-72
2023/12/05 10:23:58;;;;;;;3.10;1.47;;;;;;;13.18;45.25;96447.97;5069973;28;21042;-71
2023/12/05 10:26:23;;;;;;;3.73;1.50;;;;;;;13.45;43.80;96448.25;5063511;28;20691;-70
2023/12/05 10:28:50;;;;;;;4.00;1.47;;;;;;;13.45;43.44;96456.16;5067030;28;20270;-71
2023/12/05 10:31:16;;;;;;;2.67;1.70;;;;;;;13.80;43.01;96450.97;5058981;28;20206;-72
2023/12/05 10:33:41;;;;;;;2.80;1.73;;;;;;;13.85;42.62;96449.59;5064676;28;20874;-72
2023/12/05 10:36:13;;;;;;;2.60;1.60;;;;;;;14.08;42.29;96444.09;5060790;28;20266;-72
2023/12/05 10:38:42;;;;;;;4.90;1.47;;;;;;;14.35;42.50;96433.69;5070233;28;20210;-72
2023/12/05 10:41:07;;;;;;;2.83;1.63;;;;;;;14.63;41.49;96428.34;5049878;28;20425;-72
2023/12/05 10:43:33;;;;;;;2.87;1.20;;;;;;;14.95;40.78;96414.69;5067322;28;20540;-72
2023/12/05 10:46:03;;;;;;;2.07;1.10;;;;;;;14.83;39.97;96428.44;5069962;28;20679;-72
2023/12/05 10:48:28;;;;;;;2.27;1.40;;;;;;;14.92;40.45;96420.34;5070429;28;20171;-73
2023/12/05 10:50:56;;;;;;;2.20;1.50;;;;;;;14.98;39.88;96423.00;5069809;28;20435;-71
2023/12/05 10:53:21;;;;;;;2.47;1.43;;;;;;;14.96;39.92;96422.38;5066192;28;20191;-73
2023/12/05 10:55:47;;;;;;;2.63;1.07;;;;;;;15.38;40.00;96419.59;5065628;28;20455;-71
2023/12/05 10:58:14;;;;;;;2.10;1.27;;;;;;;15.45;39.59;96420.44;5069898;28;20229;-73
2023/12/05 11:00:40;;;;;;;1.27;1.10;;;;;;;15.76;38.78;96415.56;5066848;28;20187;-72
2023/12/05 11:03:06;;;;;;;5.93;1.50;;;;;;;15.76;39.16;96416.34;5069568;28;20523;-73
2023/12/05 11:05:32;;;;;;;1.80;1.00;;;;;;;15.81;38.55;96408.66;5070345;28;20504;-72
2023/12/05 11:07:59;;;;;;;2.10;1.10;;;;;;;15.92;38.80;96417.00;5062673;28;20190;-72
2023/12/05 11:10:28;;;;;;;1.50;1.40;;;;;;;16.26;38.37;96412.44;5061503;28;20474;-73
2023/12/05 11:12:54;;;;;;;2.87;1.07;;;;;;;16.58;37.54;96396.69;5070246;28;20481;-72
2023/12/05 11:15:34;;;;;;;2.50;1.20;;;;;;;16.37;37.64;96406.53;5063058;28;20504;-73
2023/12/05 11:18:00;;;;;;;2.10;1.10;;;;;;;16.38;37.93;96391.47;5052232;28;20824;-73
2023/12/05 11:21:03;;;;;;;3.03;1.20;;;;;;;16.66;37.66;96404.38;5052300;28;20508;-72
2023/12/05 11:23:44;;;;;;;4.10;1.40;;;;;;;16.76;36.83;96400.47;5061013;28;20472;-73
2023/12/05 11:26:40;;;;;;;5.33;1.30;;;;;;;16.81;36.88;96401.47;5051801;28;20413;-73
2023/12/05 11:29:35;;;;;;;2.63;1.33;;;;;;;16.62;36.53;96392.59;5069348;28;20446;-73
2023/12/05 11:32:16;;;;;;;2.33;1.70;;;;;;;16.82;37.15;96396.97;5043466;28;20569;-71
2023/12/05 11:35:28;;;;;;;2.10;1.47;;;;;;;16.77;36.90;96402.06;5051578;28;20421;-72
2023/12/05 11:38:12;;;;;;;1.17;1.03;;;;;;;16.41;37.03;96404.28;4987372;28;20456;-72